Time;durP1;ratioP1;P1;durP2;ratioP2;P2;SDS_P1;SDS_P2;PMS_P1;PMS_P2;Temp;Humidity;BMP_temperature;BMP_pressure;BME280_temperature;BME280_humidity;BME280_pressure;Samples;Min_cycle;Max_cycle;Signal;HPM_P1;HPM_P2
2023/05/16 00:02:18;;;;;;;0.80;0.20;;;;;;;;;;5046969;28;20068;-68
2023/05/16 00:04:45;;;;;;;0.52;0.30;;;;;;;;;;5047821;28;20102;-68
2023/05/16 00:07:11;;;;;;;0.70;0.32;;;;;;;;;;5046187;28;20439;-68
2023/05/16 00:09:37;;;;;;;0.30;0.10;;;;;;;;;;5046816;28;20056;-68
2023/05/16 00:12:03;;;;;;;1.08;0.40;;;;;;;;;;5028254;28;20052;-68
2023/05/16 00:14:29;;;;;;;0.77;0.20;;;;;;;;;;5047474;28;20068;-68
2023/05/16 00:16:59;;;;;;;1.17;0.57;;;;;;;;;;5027674;28;20551;-68
2023/05/16 00:19:26;;;;;;;1.17;0.40;;;;;;;;;;5028455;28;20064;-68
2023/05/16 00:21:52;;;;;;;3.28;0.45;;;;;;;;;;5046813;28;20196;-68
2023/05/16 00:24:18;;;;;;;1.05;0.30;;;;;;;;;;5047166;28;20152;-68
2023/05/16 00:26:44;;;;;;;1.45;0.43;;;;;;;;;;5047470;28;20491;-68
2023/05/16 00:29:10;;;;;;;1.15;0.40;;;;;;;;;;5029445;28;20522;-68
2023/05/16 00:31:36;;;;;;;0.68;0.17;;;;;;;;;;5027309;28;20118;-68
2023/05/16 00:34:02;;;;;;;0.50;0.28;;;;;;;;;;5027257;28;20067;-68
2023/05/16 00:36:29;;;;;;;0.63;0.30;;;;;;;;;;5030549;28;20513;-68
2023/05/16 00:38:55;;;;;;;0.88;0.15;;;;;;;;;;5045162;28;20573;-68
2023/05/16 00:41:22;;;;;;;2.55;0.40;;;;;;;;;;5027070;28;20060;-68
2023/05/16 00:43:48;;;;;;;0.30;0.10;;;;;;;;;;5027750;28;20049;-68
2023/05/16 00:46:14;;;;;;;0.63;0.25;;;;;;;;;;5045043;28;20041;-68
2023/05/16 00:48:41;;;;;;;1.25;0.32;;;;;;;;;;5045440;28;21010;-68
2023/05/16 00:51:08;;;;;;;1.60;0.30;;;;;;;;;;5027136;28;20083;-68
2023/05/16 00:53:35;;;;;;;0.88;0.10;;;;;;;;;;5027161;28;20052;-68
2023/05/16 00:56:01;;;;;;;1.58;0.32;;;;;;;;;;5027608;28;20048;-68
2023/05/16 00:58:30;;;;;;;0.40;0.20;;;;;;;;;;5025577;28;20052;-68
2023/05/16 01:00:57;;;;;;;0.15;0.13;;;;;;;;;;5026902;28;20059;-68
2023/05/16 01:03:23;;;;;;;1.58;0.47;;;;;;;;;;5027668;28;20045;-68
2023/05/16 01:05:49;;;;;;;0.10;0.03;;;;;;;;;;5027370;28;20126;-68
2023/05/16 01:08:15;;;;;;;0.40;0.20;;;;;;;;;;5045871;28;20072;-68
2023/05/16 01:11:04;;;;;;;0.70;0.20;;;;;;;;;;5027713;28;20097;-68
2023/05/16 01:13:36;;;;;;;0.47;0.20;;;;;;;;;;5016677;28;20064;-68
2023/05/16 01:16:05;;;;;;;0.10;0.00;;;;;;;;;;5045336;28;20053;-68
2023/05/16 01:18:41;;;;;;;0.25;0.20;;;;;;;;;;5045350;28;20041;-68
2023/05/16 01:21:12;;;;;;;0.30;0.08;;;;;;;;;;5043690;28;20135;-68
2023/05/16 01:24:00;;;;;;;0.63;0.10;;;;;;;;;;5045387;28;20137;-68
2023/05/16 01:26:27;;;;;;;0.43;0.17;;;;;;;;;;5044001;28;20044;-68
2023/05/16 01:28:53;;;;;;;0.30;0.20;;;;;;;;;;5043910;28;20072;-68
2023/05/16 01:31:20;;;;;;;1.05;0.63;;;;;;;;;;5047164;28;20128;-68
2023/05/16 01:33:46;;;;;;;1.23;0.20;;;;;;;;;;5045198;28;20041;-68
2023/05/16 01:36:20;;;;;;;0.20;0.10;;;;;;;;;;5045295;28;20553;-68
2023/05/16 01:39:04;;;;;;;0.43;0.20;;;;;;;;;;5045245;28;20391;-68
2023/05/16 01:41:30;;;;;;;0.43;0.15;;;;;;;;;;5044428;28;20044;-68
2023/05/16 01:44:02;;;;;;;0.40;0.10;;;;;;;;;;5044317;28;20091;-68
2023/05/16 01:46:30;;;;;;;1.45;0.20;;;;;;;;;;5027743;28;20049;-68
2023/05/16 01:49:16;;;;;;;0.45;0.10;;;;;;;;;;5025116;28;20053;-68
2023/05/16 01:51:43;;;;;;;0.30;0.20;;;;;;;;;;5027211;28;20052;-68
2023/05/16 01:54:12;;;;;;;0.40;0.10;;;;;;;;;;5045659;28;20048;-68
2023/05/16 01:56:38;;;;;;;0.30;0.20;;;;;;;;;;5026267;28;20443;-68
2023/05/16 01:59:05;;;;;;;0.80;0.40;;;;;;;;;;5044333;28;20094;-68
2023/05/16 02:01:31;;;;;;;0.60;0.20;;;;;;;;;;5026718;28;20048;-68
2023/05/16 02:03:57;;;;;;;0.88;0.25;;;;;;;;;;5043952;28;20098;-68
2023/05/16 02:06:24;;;;;;;0.50;0.20;;;;;;;;;;5044316;28;20072;-68
2023/05/16 02:08:51;;;;;;;0.52;0.38;;;;;;;;;;5044340;28;20095;-68
2023/05/16 02:11:17;;;;;;;1.55;0.43;;;;;;;;;;5022226;28;20539;-68
2023/05/16 02:13:43;;;;;;;0.30;0.20;;;;;;;;;;5028594;28;21761;-67
2023/05/16 02:16:10;;;;;;;1.08;0.10;;;;;;;;;;5044295;28;20037;-67
2023/05/16 02:18:36;;;;;;;1.42;0.50;;;;;;;;;;5043706;28;20049;-68
2023/05/16 02:21:02;;;;;;;0.55;0.20;;;;;;;;;;5044020;28;20060;-68
2023/05/16 02:23:28;;;;;;;0.55;0.20;;;;;;;;;;5024551;28;20438;-68
2023/05/16 02:25:54;;;;;;;0.65;0.20;;;;;;;;;;5025415;28;20484;-68
2023/05/16 02:28:20;;;;;;;0.45;0.30;;;;;;;;;;5026027;28;20062;-68
2023/05/16 02:30:55;;;;;;;0.40;0.20;;;;;;;;;;5042422;28;20052;-68
2023/05/16 02:33:21;;;;;;;0.52;0.28;;;;;;;;;;5044591;28;20120;-68
2023/05/16 02:35:48;;;;;;;0.35;0.10;;;;;;;;;;5025468;28;20164;-68
2023/05/16 02:38:16;;;;;;;1.17;0.13;;;;;;;;;;5040952;28;20474;-68
2023/05/16 02:40:42;;;;;;;1.77;0.20;;;;;;;;;;5043102;28;20523;-68
2023/05/16 02:43:09;;;;;;;0.17;0.10;;;;;;;;;;5043639;28;20606;-68
2023/05/16 02:45:35;;;;;;;0.70;0.20;;;;;;;;;;5043230;28;20699;-68
2023/05/16 02:48:01;;;;;;;0.22;0.05;;;;;;;;;;5025251;28;20451;-68
2023/05/16 02:50:27;;;;;;;0.93;0.30;;;;;;;;;;5043538;28;20099;-69
2023/05/16 02:52:53;;;;;;;0.15;0.10;;;;;;;;;;5042618;28;20041;-68
2023/05/16 02:55:19;;;;;;;0.43;0.30;;;;;;;;;;5043607;28;20687;-68
2023/05/16 02:57:45;;;;;;;0.80;0.10;;;;;;;;;;5025276;28;20060;-68
2023/05/16 03:00:11;;;;;;;0.25;0.20;;;;;;;;;;5043923;28;20087;-68
2023/05/16 03:02:37;;;;;;;0.70;0.50;;;;;;;;;;5043416;28;20127;-68
2023/05/16 03:05:05;;;;;;;0.77;0.30;;;;;;;;;;5043219;28;20072;-68
2023/05/16 03:07:31;;;;;;;1.33;0.40;;;;;;;;;;5042916;28;20094;-68
2023/05/16 03:09:57;;;;;;;0.43;0.20;;;;;;;;;;5025065;28;20048;-68
2023/05/16 03:12:23;;;;;;;0.68;0.20;;;;;;;;;;5025777;28;20071;-68
2023/05/16 03:14:50;;;;;;;1.55;0.52;;;;;;;;;;5042419;28;20037;-68
2023/05/16 03:17:16;;;;;;;1.70;0.47;;;;;;;;;;5043638;28;20783;-68
2023/05/16 03:19:42;;;;;;;1.75;0.77;;;;;;;;;;5043015;28;20045;-68
2023/05/16 03:22:08;;;;;;;0.55;0.30;;;;;;;;;;5043546;28;20075;-68
2023/05/16 03:24:34;;;;;;;0.80;0.40;;;;;;;;;;5025386;28;20562;-68
2023/05/16 03:27:02;;;;;;;0.82;0.38;;;;;;;;;;5024566;28;20064;-68
2023/05/16 03:29:28;;;;;;;0.98;0.15;;;;;;;;;;5043284;28;20127;-68
2023/05/16 03:31:55;;;;;;;0.32;0.20;;;;;;;;;;5025247;28;20059;-68
2023/05/16 03:34:21;;;;;;;0.60;0.10;;;;;;;;;;5042206;28;20503;-68
2023/05/16 03:36:48;;;;;;;1.00;0.20;;;;;;;;;;5042972;28;20087;-68
2023/05/16 03:39:14;;;;;;;1.48;0.28;;;;;;;;;;5023328;28;20049;-68
2023/05/16 03:41:40;;;;;;;1.40;0.20;;;;;;;;;;5042684;28;20159;-68
2023/05/16 03:44:06;;;;;;;2.55;0.60;;;;;;;;;;5043045;28;20128;-69
2023/05/16 03:46:32;;;;;;;0.20;0.10;;;;;;;;;;5043309;28;20076;-68
2023/05/16 03:48:58;;;;;;;2.08;0.40;;;;;;;;;;5020868;28;20064;-68
2023/05/16 03:51:24;;;;;;;1.05;0.50;;;;;;;;;;5023880;28;20123;-68
2023/05/16 03:53:50;;;;;;;0.65;0.20;;;;;;;;;;5021611;28;20056;-68
2023/05/16 03:56:17;;;;;;;1.48;0.45;;;;;;;;;;5021855;28;20045;-68
2023/05/16 03:58:43;;;;;;;0.22;0.10;;;;;;;;;;5023703;28;20053;-69
2023/05/16 04:01:09;;;;;;;0.00;0.00;;;;;;;;;;5021648;28;20052;-68
2023/05/16 04:03:37;;;;;;;0.10;0.10;;;;;;;;;;5021158;28;20375;-68
2023/05/16 04:06:03;;;;;;;1.45;0.20;;;;;;;;;;5022802;28;20119;-68
2023/05/16 04:08:30;;;;;;;0.73;0.13;;;;;;;;;;5023162;28;20107;-69
2023/05/16 04:10:56;;;;;;;0.95;0.20;;;;;;;;;;5021398;28;20448;-68
2023/05/16 04:13:22;;;;;;;0.70;0.10;;;;;;;;;;5022199;28;20491;-68
2023/05/16 04:15:48;;;;;;;0.30;0.10;;;;;;;;;;5022893;28;20042;-68
2023/05/16 04:18:14;;;;;;;0.68;0.20;;;;;;;;;;5025520;28;20064;-68
2023/05/16 04:20:42;;;;;;;0.43;0.20;;;;;;;;;;5025289;28;20797;-68
2023/05/16 04:23:09;;;;;;;0.57;0.30;;;;;;;;;;5023721;28;20053;-68
2023/05/16 04:25:36;;;;;;;0.30;0.10;;;;;;;;;;5023006;28;20538;-68
2023/05/16 04:28:02;;;;;;;0.30;0.20;;;;;;;;;;5025835;28;20057;-68
2023/05/16 04:30:28;;;;;;;0.98;0.20;;;;;;;;;;5024315;28;20065;-68
2023/05/16 04:32:54;;;;;;;1.80;0.30;;;;;;;;;;5028024;28;20452;-69
2023/05/16 04:35:21;;;;;;;0.47;0.10;;;;;;;;;;5025367;28;20065;-69
2023/05/16 04:37:47;;;;;;;0.47;0.30;;;;;;;;;;5025304;28;20053;-68
2023/05/16 04:40:13;;;;;;;0.20;0.10;;;;;;;;;;5022704;28;20049;-68
2023/05/16 04:42:39;;;;;;;0.25;0.20;;;;;;;;;;5026164;28;20171;-68
2023/05/16 04:45:09;;;;;;;1.08;0.35;;;;;;;;;;5025111;28;20059;-68
2023/05/16 04:47:35;;;;;;;0.17;0.10;;;;;;;;;;5024783;28;20616;-68
2023/05/16 04:50:02;;;;;;;0.57;0.32;;;;;;;;;;5046516;28;20103;-68
2023/05/16 04:52:28;;;;;;;0.22;0.17;;;;;;;;;;5027243;28;20769;-68
2023/05/16 04:54:54;;;;;;;0.38;0.10;;;;;;;;;;5045708;28;20120;-69
2023/05/16 04:57:20;;;;;;;0.17;0.15;;;;;;;;;;5028288;28;20045;-68
2023/05/16 04:59:46;;;;;;;0.93;0.40;;;;;;;;;;5044885;28;21438;-68
2023/05/16 05:02:12;;;;;;;0.52;0.30;;;;;;;;;;5028496;28;20135;-68
2023/05/16 05:04:38;;;;;;;1.02;0.20;;;;;;;;;;5045733;28;20563;-68
2023/05/16 05:07:04;;;;;;;2.50;0.20;;;;;;;;;;5026742;28;20045;-68
2023/05/16 05:09:30;;;;;;;0.65;0.30;;;;;;;;;;5027810;28;20048;-68
2023/05/16 05:11:56;;;;;;;1.45;0.30;;;;;;;;;;5045411;28;20441;-68
2023/05/16 05:14:22;;;;;;;2.03;0.70;;;;;;;;;;5027358;28;20040;-68
2023/05/16 05:16:48;;;;;;;0.73;0.32;;;;;;;;;;5045077;28;20564;-68
2023/05/16 05:19:14;;;;;;;1.08;0.30;;;;;;;;;;5045790;28;20037;-68
2023/05/16 05:21:41;;;;;;;0.77;0.40;;;;;;;;;;5044995;28;20127;-68
2023/05/16 05:24:07;;;;;;;1.20;0.38;;;;;;;;;;5028112;28;20049;-68
2023/05/16 05:26:33;;;;;;;0.82;0.60;;;;;;;;;;5026583;28;20041;-68
2023/05/16 05:28:59;;;;;;;1.58;0.50;;;;;;;;;;5027016;28;20123;-68
2023/05/16 05:31:25;;;;;;;0.52;0.20;;;;;;;;;;5045110;28;20073;-68
2023/05/16 05:33:51;;;;;;;0.95;0.60;;;;;;;;;;5043800;28;20044;-68
2023/05/16 05:36:17;;;;;;;4.07;0.57;;;;;;;;;;5045575;28;20051;-68
2023/05/16 05:38:43;;;;;;;2.17;0.35;;;;;;;;;;5045697;28;20086;-68
2023/05/16 05:41:10;;;;;;;2.08;0.50;;;;;;;;;;5026552;28;20053;-68
2023/05/16 05:43:36;;;;;;;0.95;0.40;;;;;;;;;;5045000;28;20072;-68
2023/05/16 05:46:02;;;;;;;1.20;0.30;;;;;;;;;;5044613;28;20045;-68
2023/05/16 05:48:29;;;;;;;1.30;0.68;;;;;;;;;;5026419;28;20052;-68
2023/05/16 05:50:55;;;;;;;0.77;0.38;;;;;;;;;;5043012;28;20075;-68
2023/05/16 05:53:21;;;;;;;1.23;0.30;;;;;;;;;;5040698;28;20076;-68
2023/05/16 05:55:47;;;;;;;1.92;0.60;;;;;;;;;;5043917;28;20076;-68
2023/05/16 05:58:13;;;;;;;4.63;1.10;;;;;;;;;;5028104;28;20140;-68
2023/05/16 06:00:39;;;;;;;3.42;0.47;;;;;;;;;;5026682;28;20480;-68
2023/05/16 06:03:05;;;;;;;3.78;0.50;;;;;;;;;;5025705;28;20053;-68
2023/05/16 06:05:31;;;;;;;5.53;0.80;;;;;;;;;;5044619;28;20083;-68
2023/05/16 06:07:57;;;;;;;2.00;0.77;;;;;;;;;;5044305;28;20534;-68
2023/05/16 06:10:23;;;;;;;1.23;0.50;;;;;;;;;;5026001;28;20053;-68
2023/05/16 06:12:49;;;;;;;1.35;0.45;;;;;;;;;;5026836;28;20563;-68
2023/05/16 06:15:16;;;;;;;3.97;0.60;;;;;;;;;;5026979;28;20496;-68
2023/05/16 06:17:42;;;;;;;1.50;0.45;;;;;;;;;;5026509;28;20041;-68
2023/05/16 06:20:08;;;;;;;0.40;0.30;;;;;;;;;;5025899;28;20055;-68
2023/05/16 06:22:34;;;;;;;3.45;1.00;;;;;;;;;;5042751;28;20095;-68
2023/05/16 06:25:00;;;;;;;1.70;0.55;;;;;;;;;;5026259;28;20056;-68
2023/05/16 06:27:26;;;;;;;4.10;0.80;;;;;;;;;;5026946;28;20049;-68
2023/05/16 06:29:52;;;;;;;1.80;0.52;;;;;;;;;;5043333;28;20048;-68
2023/05/16 06:32:18;;;;;;;0.82;0.45;;;;;;;;;;5025300;28;20671;-69
2023/05/16 06:34:44;;;;;;;0.68;0.40;;;;;;;;;;5029982;28;20048;-69
2023/05/16 06:37:10;;;;;;;1.92;0.52;;;;;;;;;;5043956;28;20658;-68
2023/05/16 06:39:36;;;;;;;2.03;0.65;;;;;;;;;;5043868;28;20056;-68
2023/05/16 06:42:02;;;;;;;2.08;0.70;;;;;;;;;;5044314;28;20056;-68
2023/05/16 06:44:28;;;;;;;1.55;0.70;;;;;;;;;;5026366;28;20098;-68
2023/05/16 06:46:54;;;;;;;2.15;0.60;;;;;;;;;;5044225;28;20075;-68
2023/05/16 06:49:20;;;;;;;3.35;0.68;;;;;;;;;;5044395;28;20147;-68
2023/05/16 06:51:48;;;;;;;2.00;0.40;;;;;;;;;;5043352;28;20076;-68
2023/05/16 06:54:14;;;;;;;1.98;0.50;;;;;;;;;;5045145;28;20503;-68
2023/05/16 06:56:40;;;;;;;2.17;0.57;;;;;;;;;;5026379;28;20136;-68
2023/05/16 06:59:06;;;;;;;2.35;0.70;;;;;;;;;;5042773;28;21053;-68
2023/05/16 07:01:32;;;;;;;1.05;0.40;;;;;;;;;;5042570;28;20048;-68
2023/05/16 07:03:58;;;;;;;1.92;1.00;;;;;;;;;;5046384;28;20395;-68
2023/05/16 07:06:23;;;;;;;3.15;0.93;;;;;;;;;;5026182;28;20073;-68
2023/05/16 07:08:49;;;;;;;3.17;0.73;;;;;;;;;;5026690;28;20124;-68
2023/05/16 07:11:16;;;;;;;1.23;0.82;;;;;;;;;;5045177;28;20055;-68
2023/05/16 07:13:42;;;;;;;1.23;0.60;;;;;;;;;;5026821;28;20048;-68
2023/05/16 07:16:08;;;;;;;3.30;0.50;;;;;;;;;;5044615;28;20048;-68
2023/05/16 07:18:34;;;;;;;1.10;0.50;;;;;;;;;;5047242;28;20506;-69
2023/05/16 07:21:00;;;;;;;1.15;0.60;;;;;;;;;;5027661;28;20384;-68
2023/05/16 07:23:26;;;;;;;2.65;0.70;;;;;;;;;;5027060;28;20128;-68
2023/05/16 07:25:52;;;;;;;2.88;0.98;;;;;;;;;;5040519;28;20057;-65
2023/05/16 07:28:18;;;;;;;1.50;0.60;;;;;;;;;;5026703;28;20411;-64
2023/05/16 07:30:45;;;;;;;2.78;0.90;;;;;;;;;;5026961;28;20052;-62
2023/05/16 07:33:11;;;;;;;3.78;1.13;;;;;;;;;;5044736;28;20439;-64
2023/05/16 07:35:38;;;;;;;2.42;0.90;;;;;;;;;;5026702;28;20246;-63
2023/05/16 07:38:04;;;;;;;1.70;0.70;;;;;;;;;;5044384;28;20044;-67
2023/05/16 07:40:30;;;;;;;3.33;1.20;;;;;;;;;;5025903;28;20384;-68
2023/05/16 07:42:56;;;;;;;4.43;1.23;;;;;;;;;;5043389;28;20391;-68
2023/05/16 07:45:22;;;;;;;1.67;0.85;;;;;;;;;;5045063;28;20084;-70
2023/05/16 07:47:48;;;;;;;1.83;0.55;;;;;;;;;;5042760;28;20049;-70
2023/05/16 07:50:14;;;;;;;2.78;1.00;;;;;;;;;;5045852;28;20060;-70
2023/05/16 07:52:40;;;;;;;4.43;0.93;;;;;;;;;;5030068;28;20463;-71
2023/05/16 07:55:06;;;;;;;2.30;0.90;;;;;;;;;;5031474;28;20056;-71
2023/05/16 07:57:32;;;;;;;4.70;1.48;;;;;;;;;;5038449;28;20033;-71
2023/05/16 07:59:59;;;;;;;1.63;0.65;;;;;;;;;;5039556;28;20054;-71
2023/05/16 08:02:29;;;;;;;2.17;0.77;;;;;;;;;;5033786;28;20096;-71
2023/05/16 08:04:55;;;;;;;2.42;0.65;;;;;;;;;;5047716;28;20053;-70
2023/05/16 08:07:22;;;;;;;4.25;0.90;;;;;;;;;;5030161;28;20056;-70
2023/05/16 08:09:47;;;;;;;1.38;0.77;;;;;;;;;;5051150;28;20614;-70
2023/05/16 08:12:13;;;;;;;1.83;0.70;;;;;;;;;;5030439;28;20054;-70
2023/05/16 08:14:39;;;;;;;1.67;0.63;;;;;;;;;;5047602;28;20092;-70
2023/05/16 08:17:06;;;;;;;1.98;0.57;;;;;;;;;;5047228;28;20485;-70
2023/05/16 08:19:32;;;;;;;1.25;0.40;;;;;;;;;;5029889;28;20072;-70
2023/05/16 08:21:58;;;;;;;3.45;0.88;;;;;;;;;;5047335;28;20080;-70
2023/05/16 08:24:24;;;;;;;1.60;0.50;;;;;;;;;;5027689;28;20072;-70
2023/05/16 08:26:50;;;;;;;0.88;0.52;;;;;;;;;;5027766;28;20440;-70
2023/05/16 08:29:16;;;;;;;3.17;0.90;;;;;;;;;;5027579;28;20045;-69
2023/05/16 08:31:42;;;;;;;2.28;0.73;;;;;;;;;;5027385;28;20055;-69
2023/05/16 08:34:09;;;;;;;2.88;0.80;;;;;;;;;;5046445;28;20404;-69
2023/05/16 08:36:36;;;;;;;1.08;0.70;;;;;;;;;;5047007;28;20299;-69
2023/05/16 08:39:02;;;;;;;2.67;1.00;;;;;;;;;;5046089;28;20731;-69
2023/05/16 08:41:28;;;;;;;3.90;0.95;;;;;;;;;;5045458;28;20037;-69
2023/05/16 08:43:54;;;;;;;2.70;0.80;;;;;;;;;;5024589;28;20059;-69
2023/05/16 08:46:21;;;;;;;2.25;1.13;;;;;;;;;;5050909;28;20442;-69
2023/05/16 08:48:51;;;;;;;4.97;1.15;;;;;;;;;;5028882;28;20251;-69
2023/05/16 08:51:18;;;;;;;1.88;0.70;;;;;;;;;;5045258;28;20499;-69
2023/05/16 08:53:53;;;;;;;5.88;1.25;;;;;;;;;;5023077;28;20275;-68
2023/05/16 08:56:21;;;;;;;2.38;0.73;;;;;;;;;;5015659;28;20057;-69
2023/05/16 08:58:47;;;;;;;3.78;1.25;;;;;;;;;;5008093;28;20165;-69
2023/05/16 09:01:13;;;;;;;3.10;0.80;;;;;;;;;;5043280;28;20611;-68
2023/05/16 09:03:40;;;;;;;1.08;0.60;;;;;;;;;;5028414;28;20460;-68
2023/05/16 09:06:06;;;;;;;1.33;0.73;;;;;;;;;;5027639;28;20056;-69
2023/05/16 09:08:32;;;;;;;4.22;1.40;;;;;;;;;;5028661;28;20052;-68
2023/05/16 09:10:58;;;;;;;2.45;0.93;;;;;;;;;;5027590;28;20048;-69
2023/05/16 09:13:24;;;;;;;3.60;1.08;;;;;;;;;;5046362;28;20041;-68
2023/05/16 09:16:09;;;;;;;2.58;0.82;;;;;;;;;;5026835;28;20086;-68
2023/05/16 09:18:36;;;;;;;3.05;0.95;;;;;;;;;;5008031;28;20572;-69
2023/05/16 09:21:03;;;;;;;1.80;0.90;;;;;;;;;;5008695;28;20527;-68
2023/05/16 09:23:29;;;;;;;5.18;0.95;;;;;;;;;;5026674;28;20053;-66
2023/05/16 09:25:57;;;;;;;4.97;1.10;;;;;;;;;;5025716;28;20081;-68
2023/05/16 09:28:23;;;;;;;3.30;0.73;;;;;;;;;;5009006;28;20130;-68
2023/05/16 09:30:49;;;;;;;3.58;0.95;;;;;;;;;;5008134;28;20710;-68
2023/05/16 09:33:15;;;;;;;3.95;1.00;;;;;;;;;;5026457;28;20043;-68
2023/05/16 09:35:41;;;;;;;5.60;1.10;;;;;;;;;;5025798;28;20049;-68
2023/05/16 09:38:13;;;;;;;2.95;0.65;;;;;;;;;;5024602;28;20568;-68
2023/05/16 09:40:42;;;;;;;2.58;1.00;;;;;;;;;;5006614;28;20136;-68
2023/05/16 09:43:08;;;;;;;7.57;0.85;;;;;;;;;;5024542;28;20045;-68
2023/05/16 09:45:35;;;;;;;2.28;0.93;;;;;;;;;;5006647;28;20092;-68
2023/05/16 09:48:08;;;;;;;2.70;1.00;;;;;;;;;;5023617;28;20058;-68
2023/05/16 09:50:34;;;;;;;2.70;1.00;;;;;;;;;;5007543;28;20057;-68
2023/05/16 09:53:01;;;;;;;2.22;0.70;;;;;;;;;;5008277;28;20113;-68
2023/05/16 09:55:27;;;;;;;2.80;0.93;;;;;;;;;;5008132;28;20503;-68
2023/05/16 09:57:53;;;;;;;2.05;0.70;;;;;;;;;;5007793;28;20480;-68
2023/05/16 10:00:19;;;;;;;1.92;0.95;;;;;;;;;;5026061;28;20046;-68
2023/05/16 10:02:45;;;;;;;2.08;0.82;;;;;;;;;;5025501;28;20574;-68
2023/05/16 10:05:11;;;;;;;2.58;0.73;;;;;;;;;;5026778;28;20049;-68
2023/05/16 10:07:39;;;;;;;2.00;0.80;;;;;;;;;;5007821;28;20098;-68
2023/05/16 10:10:09;;;;;;;2.20;0.82;;;;;;;;;;5007897;28;20061;-68
2023/05/16 10:12:36;;;;;;;2.67;0.90;;;;;;;;;;5025626;28;20046;-68
2023/05/16 10:15:03;;;;;;;2.80;0.73;;;;;;;;;;5023774;28;20053;-68
2023/05/16 10:17:31;;;;;;;3.58;1.08;;;;;;;;;;5007748;28;20487;-68
2023/05/16 10:19:57;;;;;;;1.75;0.70;;;;;;;;;;5025241;28;20049;-68
2023/05/16 10:22:24;;;;;;;2.83;1.13;;;;;;;;;;5025243;28;20120;-68
2023/05/16 10:25:16;;;;;;;1.80;0.82;;;;;;;;;;5008056;28;20050;-68
2023/05/16 10:27:43;;;;;;;1.45;0.90;;;;;;;;;;5023885;28;20065;-68
2023/05/16 10:30:09;;;;;;;4.70;0.80;;;;;;;;;;5016587;28;20475;-68
2023/05/16 10:32:36;;;;;;;2.92;1.27;;;;;;;;;;5026759;28;20049;-69
2023/05/16 10:35:03;;;;;;;2.88;0.75;;;;;;;;;;5030305;28;20061;-69
2023/05/16 10:37:30;;;;;;;1.55;0.82;;;;;;;;;;5037782;28;20090;-69
2023/05/16 10:39:57;;;;;;;3.78;0.80;;;;;;;;;;5035138;28;20061;-69
2023/05/16 10:42:23;;;;;;;1.27;0.60;;;;;;;;;;5034985;28;20396;-69
2023/05/16 10:44:53;;;;;;;2.35;0.90;;;;;;;;;;5040612;28;20045;-69
2023/05/16 10:47:19;;;;;;;0.88;0.68;;;;;;;;;;5026886;28;20122;-67
2023/05/16 10:49:45;;;;;;;2.60;0.93;;;;;;;;;;5044522;28;20098;-67
2023/05/16 10:52:14;;;;;;;3.85;1.10;;;;;;;;;;5045260;28;20053;-67
2023/05/16 10:54:41;;;;;;;3.20;1.00;;;;;;;;;;5044918;28;20044;-67
2023/05/16 10:57:16;;;;;;;3.25;1.17;;;;;;;;;;5026055;28;20586;-68
2023/05/16 10:59:46;;;;;;;3.25;0.80;;;;;;;;;;5030442;28;20060;-69
2023/05/16 11:02:25;;;;;;;3.63;1.23;;;;;;;;;;5029285;28;20081;-68
2023/05/16 11:04:52;;;;;;;2.03;1.40;;;;;;;;;;5022931;28;20049;-69
2023/05/16 11:07:19;;;;;;;5.75;1.52;;;;;;;;;;5037326;28;20407;-69
2023/05/16 11:09:45;;;;;;;2.40;0.90;;;;;;;;;;5027556;28;20507;-68
2023/05/16 11:12:12;;;;;;;3.28;1.00;;;;;;;;;;5027447;28;20373;-68
2023/05/16 11:14:41;;;;;;;2.80;0.82;;;;;;;;;;5044901;28;20198;-68
2023/05/16 11:17:10;;;;;;;1.23;0.60;;;;;;;;;;5044100;28;20125;-68
2023/05/16 11:19:42;;;;;;;4.25;1.40;;;;;;;;;;5044372;28;20558;-69
2023/05/16 11:22:16;;;;;;;4.03;1.63;;;;;;;;;;5011345;28;20046;-68
2023/05/16 11:24:54;;;;;;;5.90;1.52;;;;;;;;;;5026066;28;20096;-69
2023/05/16 11:27:31;;;;;;;5.20;1.48;;;;;;;;;;5014232;28;20041;-68
2023/05/16 11:30:06;;;;;;;6.22;1.45;;;;;;;;;;5030938;28;20053;-69
2023/05/16 11:32:36;;;;;;;4.85;1.08;;;;;;;;;;5030937;28;20113;-68
2023/05/16 11:35:02;;;;;;;0.98;0.65;;;;;;;;;;5049011;28;20080;-68
2023/05/16 11:37:29;;;;;;;3.05;1.17;;;;;;;;;;5022938;28;20162;-68
2023/05/16 11:39:59;;;;;;;3.60;1.10;;;;;;;;;;5039699;28;20119;-68
2023/05/16 11:42:28;;;;;;;4.30;1.35;;;;;;;;;;5031140;28;20496;-68
2023/05/16 11:45:03;;;;;;;3.20;1.15;;;;;;;;;;5048768;28;20076;-68
2023/05/16 11:47:30;;;;;;;3.72;1.35;;;;;;;;;;5048627;28;20040;-68
2023/05/16 11:49:57;;;;;;;3.90;1.42;;;;;;;;;;5030653;28;20091;-68
2023/05/16 11:52:23;;;;;;;3.70;1.10;;;;;;;;;;5031053;28;20044;-68
2023/05/16 11:54:49;;;;;;;2.97;1.45;;;;;;;;;;5048102;28;20076;-68
2023/05/16 11:57:16;;;;;;;4.53;1.58;;;;;;;;;;5031624;28;20072;-67
2023/05/16 11:59:42;;;;;;;4.15;1.30;;;;;;;;;;5031224;28;20104;-68
2023/05/16 12:02:09;;;;;;;3.33;1.67;;;;;;;;;;5047899;28;20049;-69
2023/05/16 12:04:37;;;;;;;2.20;0.90;;;;;;;;;;5048793;28;20379;-69
2023/05/16 12:07:04;;;;;;;2.75;1.23;;;;;;;;;;5048602;28;20053;-68
2023/05/16 12:09:30;;;;;;;4.22;1.95;;;;;;;;;;5030120;28;20076;-68
2023/05/16 12:11:57;;;;;;;3.75;1.33;;;;;;;;;;5047187;28;20048;-68
2023/05/16 12:14:26;;;;;;;2.67;1.30;;;;;;;;;;5035721;28;20555;-68
2023/05/16 12:16:52;;;;;;;2.63;1.17;;;;;;;;;;5010328;28;20052;-69
2023/05/16 12:19:18;;;;;;;1.60;1.25;;;;;;;;;;5028502;28;20052;-70
2023/05/16 12:21:44;;;;;;;2.00;1.02;;;;;;;;;;5024762;28;20055;-69
2023/05/16 12:24:11;;;;;;;3.20;1.13;;;;;;;;;;5048222;28;20050;-68
2023/05/16 12:26:39;;;;;;;5.05;1.70;;;;;;;;;;5041606;28;20049;-68
2023/05/16 12:29:05;;;;;;;3.80;1.55;;;;;;;;;;5053623;28;20055;-68
2023/05/16 12:31:41;;;;;;;2.97;1.30;;;;;;;;;;5023816;28;20145;-68
2023/05/16 12:34:27;;;;;;;2.25;1.27;;;;;;;;;;5038368;28;20128;-68
2023/05/16 12:36:53;;;;;;;2.45;1.40;;;;;;;;;;5013646;28;20053;-67
2023/05/16 12:39:19;;;;;;;2.75;1.20;;;;;;;;;;5027023;28;20037;-68
2023/05/16 12:41:46;;;;;;;1.83;1.33;;;;;;;;;;5034621;28;20065;-67
2023/05/16 12:44:16;;;;;;;1.88;1.27;;;;;;;;;;5045144;28;20511;-68
2023/05/16 12:46:47;;;;;;;1.55;0.75;;;;;;;;;;5040158;28;20119;-68
2023/05/16 12:49:13;;;;;;;2.20;1.63;;;;;;;;;;5028640;28;20653;-68
2023/05/16 12:51:39;;;;;;;2.20;1.30;;;;;;;;;;5039188;28;20059;-68
2023/05/16 12:54:12;;;;;;;2.95;1.50;;;;;;;;;;5044510;28;20483;-68
2023/05/16 12:56:38;;;;;;;3.25;1.40;;;;;;;;;;5035552;28;20140;-68
2023/05/16 12:59:04;;;;;;;2.83;1.30;;;;;;;;;;5021584;28;20417;-68
2023/05/16 13:01:31;;;;;;;3.00;1.60;;;;;;;;;;5016658;28;20173;-68
2023/05/16 13:03:57;;;;;;;2.22;1.15;;;;;;;;;;5036317;28;20099;-68
2023/05/16 13:06:23;;;;;;;2.45;1.50;;;;;;;;;;5037293;28;20515;-68
2023/05/16 13:08:49;;;;;;;1.75;1.20;;;;;;;;;;5044210;28;20037;-68
2023/05/16 13:11:15;;;;;;;1.80;1.35;;;;;;;;;;5024711;28;20547;-68
2023/05/16 13:13:41;;;;;;;1.85;1.02;;;;;;;;;;5024193;28;20048;-68
2023/05/16 13:16:09;;;;;;;3.03;1.40;;;;;;;;;;5040721;28;20052;-68
2023/05/16 13:18:35;;;;;;;1.67;1.20;;;;;;;;;;5044849;28;20045;-68
2023/05/16 13:21:03;;;;;;;3.53;1.33;;;;;;;;;;5020540;28;20041;-68
2023/05/16 13:23:29;;;;;;;2.78;1.50;;;;;;;;;;5022417;28;20056;-68
2023/05/16 13:25:55;;;;;;;1.48;1.13;;;;;;;;;;5044047;28;20040;-68
2023/05/16 13:28:21;;;;;;;2.38;1.48;;;;;;;;;;5021334;28;20051;-68
2023/05/16 13:30:47;;;;;;;3.45;1.73;;;;;;;;;;5020366;28;20107;-68
2023/05/16 13:33:13;;;;;;;2.00;1.27;;;;;;;;;;5031695;28;20041;-68
2023/05/16 13:35:39;;;;;;;2.20;1.30;;;;;;;;;;5024251;28;20053;-67
2023/05/16 13:38:05;;;;;;;2.50;2.03;;;;;;;;;;5034844;28;20074;-67
2023/05/16 13:40:31;;;;;;;1.77;1.67;;;;;;;;;;5022976;28;20053;-67
2023/05/16 13:42:57;;;;;;;1.77;1.40;;;;;;;;;;5037131;28;20076;-67
2023/05/16 13:45:24;;;;;;;1.92;0.90;;;;;;;;;;5015323;28;20044;-67
2023/05/16 13:47:50;;;;;;;1.75;1.30;;;;;;;;;;5014032;28;20506;-67
2023/05/16 13:50:16;;;;;;;1.58;0.93;;;;;;;;;;5037406;28;20415;-67
2023/05/16 13:52:43;;;;;;;2.08;1.20;;;;;;;;;;5014659;28;20107;-67
2023/05/16 13:55:09;;;;;;;4.53;1.17;;;;;;;;;;5037070;28;20056;-67
2023/05/16 13:57:35;;;;;;;1.08;0.90;;;;;;;;;;5044356;28;20041;-67
2023/05/16 14:00:07;;;;;;;1.60;1.10;;;;;;;;;;5024081;28;20830;-67
2023/05/16 14:02:33;;;;;;;3.10;1.48;;;;;;;;;;5023779;28;20045;-67
2023/05/16 14:04:59;;;;;;;2.50;1.00;;;;;;;;;;5042275;28;20045;-67
2023/05/16 14:07:25;;;;;;;1.38;1.15;;;;;;;;;;5017162;28;20454;-67
2023/05/16 14:09:51;;;;;;;1.88;1.40;;;;;;;;;;5020117;28;20056;-67
2023/05/16 14:12:17;;;;;;;2.25;1.20;;;;;;;;;;5027900;28;20068;-67
2023/05/16 14:14:44;;;;;;;2.45;1.40;;;;;;;;;;5045300;28;20037;-67
2023/05/16 14:17:10;;;;;;;1.40;1.00;;;;;;;;;;5027415;28;20048;-67
2023/05/16 14:19:36;;;;;;;1.55;1.10;;;;;;;;;;5045606;28;20053;-67
2023/05/16 14:22:02;;;;;;;1.58;1.02;;;;;;;;;;5026706;28;20747;-67
2023/05/16 14:24:28;;;;;;;1.77;1.30;;;;;;;;;;5027768;28;20061;-67
2023/05/16 14:26:54;;;;;;;1.83;1.08;;;;;;;;;;5046574;28;20044;-67
2023/05/16 14:29:21;;;;;;;2.28;1.15;;;;;;;;;;5050931;28;20396;-67
2023/05/16 14:31:47;;;;;;;1.95;1.08;;;;;;;;;;5044892;28;20045;-67
2023/05/16 14:34:13;;;;;;;3.10;1.45;;;;;;;;;;5045954;28;20041;-67
2023/05/16 14:36:39;;;;;;;3.13;1.38;;;;;;;;;;5044765;28;20045;-65
2023/05/16 14:39:05;;;;;;;2.42;0.95;;;;;;;;;;5026963;28;20780;-66
2023/05/16 14:41:31;;;;;;;4.40;1.00;;;;;;;;;;5027084;28;20053;-68
2023/05/16 14:43:57;;;;;;;1.30;0.60;;;;;;;;;;5043502;28;20575;-67